Terminal Aerodrome Forecast
Issued by NWS Bismarck, ND

Home | Current Version | Previous Version | Graphics & Text | Print | Product List | Glossary On
Versions: 1 2 3 4 5 6 7 8 9 10 11 12 13 14 15 16 17
933
FTUS43 KBIS 042320
TAFISN
TAF
KISN 042320Z 0500/0524 21004KT P6SM BKN070
     FM050200 VRB03KT 2SM -SN OVC015
     FM050500 VRB03KT P6SM VCSH OVC009
     FM050800 34005KT P6SM OVC030
     FM051300 28005KT P6SM OVC060
     FM051900 26009KT P6SM SCT150=

USA.gov is the U.S. government's official web portal to all federal, state and local government web resources and services.